Tropical Cyclones
[Index]
Main Index Home Page Stock Weather Photos Extreme Storms Discussion Storm News and Storm Chasing Reports Tropical Cyclones / Hurricanes / Typhoons Weather Data and Links Wild Fires / Bushfires Weather Observation Techniques Weather Picture Catalogue Tornado Pictures and Reports Stock Video Footage and DVDs for sale
Season 2016-2017 Tropical Cyclone DINEO Track Map
Season 2016-2017 Summaries (Operational Data): [AU] [SIO] [SPAC] [SH]
<<- Previous TC | 2016-2017 Season | Next TC ->>

click for intensity scale information  Lat/long Grid: Show Hide

 Date Labels: Show Hide

Operational Tropical Cyclone Data : JTWC Advisories

Name: DINEO
Number: 1705

10 Feb 2017 06:00 UTC to 19 Feb 2017 10:00 UTC

    date/time    lat    long     hPa   cat  kts
2017-02-10 06   18.0    39.2    1010         15          
2017-02-10 12   18.0    39.8    1010         15          
2017-02-10 18   17.9    40.6    1010         15          
2017-02-11 00   18.3    40.5    1010         15          
2017-02-11 06   18.6    40.4    1010         15          
2017-02-11 12   18.9    40.4    1010         15          
2017-02-11 18   19.1    40.0    1007         20          
2017-02-12 00   19.8    40.3    1007         20          
2017-02-12 06   20.8    40.3    1004         25          
2017-02-12 12   21.1    40.2    1003         30          
2017-02-12 18   21.2    40.1    1003         30          
2017-02-13 00   21.3    40.0    1003         30          
2017-02-13 06   21.3    39.9     996    1    35          
2017-02-13 12   21.5    39.8     998    1    40          
2017-02-13 18   21.7    39.5     998    1    45          
2017-02-14 00   21.8    39.3     995    1    45          
2017-02-14 06   22.1    39.1     986    2    55          
2017-02-14 12   22.3    38.8     984    2    55          
2017-02-14 18   22.5    38.4     989    2    55          
2017-02-15 00   22.7    37.8     978    2    60          
2017-02-15 06   23.0    37.2     980    3    65          
2017-02-15 12   23.6    36.2     963    3    80          
2017-02-15 18   23.4    35.1     977    3    75          
2017-02-16 00   23.4    34.1     988    2    60          
2017-02-16 06   23.0    33.3     982    2    55          
2017-02-16 12   22.7    32.2     989    1    45          
2017-02-17 10   22.5    29.5    1005                     
2017-02-18 10   23.2    20.8                             
2017-02-19 10   20.0    16.0                             
Winds are 10-min average.

Tropical cyclone tracks developed by Michael Bath using operational warnings and advisories and Google Maps.


[Australian Severe Weather index] [Copyright Notice] [Email Contacts] [Search This Site] [Privacy Policy]
Document: tropical_cyclone_dineo.htm Updated: 4 July 2017